sensor_id;sensor_type;location;lat;lon;timestamp;P1;durP1;ratioP1;P2;durP2;ratioP2
21546;SDS011;41275;51.912;4.388;2023-05-24T00:04:05;8.65;;;1.63;;
21546;SDS011;41275;51.912;4.388;2023-05-24T00:09:26;8.35;;;1.98;;
21546;SDS011;41275;51.912;4.388;2023-05-24T00:14:47;12.32;;;1.83;;
21546;SDS011;41275;51.912;4.388;2023-05-24T00:20:11;8.98;;;2.10;;
21546;SDS011;41275;51.912;4.388;2023-05-24T00:25:34;11.70;;;2.20;;
21546;SDS011;41275;51.912;4.388;2023-05-24T00:30:58;14.43;;;2.30;;
21546;SDS011;41275;51.912;4.388;2023-05-24T00:36:20;7.78;;;2.20;;
21546;SDS011;41275;51.912;4.388;2023-05-24T00:41:41;10.93;;;2.20;;
21546;SDS011;41275;51.912;4.388;2023-05-24T00:47:02;17.83;;;2.30;;
21546;SDS011;41275;51.912;4.388;2023-05-24T00:52:24;12.80;;;2.63;;
21546;SDS011;41275;51.912;4.388;2023-05-24T00:57:45;10.03;;;2.60;;
21546;SDS011;41275;51.912;4.388;2023-05-24T01:03:06;14.80;;;2.80;;
21546;SDS011;41275;51.912;4.388;2023-05-24T01:30:47;9.05;;;2.30;;
21546;SDS011;41275;51.912;4.388;2023-05-24T01:36:08;14.85;;;2.55;;
21546;SDS011;41275;51.912;4.388;2023-05-24T01:52:37;12.03;;;3.50;;
21546;SDS011;41275;51.912;4.388;2023-05-24T01:58:01;12.60;;;2.75;;
21546;SDS011;41275;51.912;4.388;2023-05-24T02:03:24;10.48;;;2.83;;
21546;SDS011;41275;51.912;4.388;2023-05-24T02:08:45;14.02;;;2.75;;
21546;SDS011;41275;51.912;4.388;2023-05-24T02:14:06;13.32;;;2.78;;
21546;SDS011;41275;51.912;4.388;2023-05-24T02:19:28;11.80;;;2.30;;
21546;SDS011;41275;51.912;4.388;2023-05-24T02:24:49;8.77;;;2.25;;
21546;SDS011;41275;51.912;4.388;2023-05-24T02:30:10;12.40;;;2.40;;
21546;SDS011;41275;51.912;4.388;2023-05-24T02:35:32;9.25;;;2.60;;
21546;SDS011;41275;51.912;4.388;2023-05-24T02:40:54;12.90;;;2.55;;
21546;SDS011;41275;51.912;4.388;2023-05-24T02:46:15;13.88;;;2.80;;
21546;SDS011;41275;51.912;4.388;2023-05-24T02:51:36;12.55;;;2.95;;
21546;SDS011;41275;51.912;4.388;2023-05-24T02:56:57;13.48;;;2.55;;
21546;SDS011;41275;51.912;4.388;2023-05-24T03:02:18;11.13;;;2.58;;
21546;SDS011;41275;51.912;4.388;2023-05-24T03:07:41;13.88;;;2.85;;
21546;SDS011;41275;51.912;4.388;2023-05-24T03:13:02;13.05;;;2.80;;
21546;SDS011;41275;51.912;4.388;2023-05-24T03:18:24;11.93;;;2.90;;
21546;SDS011;41275;51.912;4.388;2023-05-24T03:23:45;14.53;;;2.87;;
21546;SDS011;41275;51.912;4.388;2023-05-24T03:29:06;11.67;;;3.27;;
21546;SDS011;41275;51.912;4.388;2023-05-24T03:34:27;11.53;;;2.93;;
21546;SDS011;41275;51.912;4.388;2023-05-24T03:39:49;11.33;;;2.60;;
21546;SDS011;41275;51.912;4.388;2023-05-24T03:45:11;11.43;;;3.10;;
21546;SDS011;41275;51.912;4.388;2023-05-24T03:50:32;12.93;;;2.93;;
21546;SDS011;41275;51.912;4.388;2023-05-24T03:55:53;14.90;;;3.28;;
21546;SDS011;41275;51.912;4.388;2023-05-24T04:01:14;11.13;;;3.13;;
21546;SDS011;41275;51.912;4.388;2023-05-24T04:06:36;13.93;;;2.92;;
21546;SDS011;41275;51.912;4.388;2023-05-24T04:11:57;12.80;;;3.03;;
21546;SDS011;41275;51.912;4.388;2023-05-24T04:17:19;13.17;;;3.07;;
21546;SDS011;41275;51.912;4.388;2023-05-24T04:22:44;12.17;;;2.87;;
21546;SDS011;41275;51.912;4.388;2023-05-24T04:28:05;13.60;;;2.87;;
21546;SDS011;41275;51.912;4.388;2023-05-24T04:33:26;11.35;;;2.58;;
21546;SDS011;41275;51.912;4.388;2023-05-24T04:38:47;13.80;;;2.97;;
21546;SDS011;41275;51.912;4.388;2023-05-24T04:44:10;14.93;;;3.00;;
21546;SDS011;41275;51.912;4.388;2023-05-24T04:49:31;15.95;;;2.80;;
21546;SDS011;41275;51.912;4.388;2023-05-24T04:54:52;14.82;;;2.60;;
21546;SDS011;41275;51.912;4.388;2023-05-24T05:00:15;15.68;;;2.63;;
21546;SDS011;41275;51.912;4.388;2023-05-24T05:05:36;12.57;;;2.55;;
21546;SDS011;41275;51.912;4.388;2023-05-24T05:10:57;11.48;;;2.50;;
21546;SDS011;41275;51.912;4.388;2023-05-24T05:16:19;14.70;;;2.42;;
21546;SDS011;41275;51.912;4.388;2023-05-24T05:21:40;12.32;;;2.70;;
21546;SDS011;41275;51.912;4.388;2023-05-24T05:27:01;11.90;;;2.50;;
21546;SDS011;41275;51.912;4.388;2023-05-24T05:32:22;7.78;;;2.10;;
21546;SDS011;41275;51.912;4.388;2023-05-24T05:37:43;13.93;;;2.25;;
21546;SDS011;41275;51.912;4.388;2023-05-24T05:43:05;12.85;;;2.28;;
21546;SDS011;41275;51.912;4.388;2023-05-24T05:48:43;16.60;;;2.70;;
21546;SDS011;41275;51.912;4.388;2023-05-24T05:54:05;8.50;;;2.47;;
21546;SDS011;41275;51.912;4.388;2023-05-24T05:59:28;16.75;;;2.80;;
21546;SDS011;41275;51.912;4.388;2023-05-24T06:04:49;11.45;;;2.88;;
21546;SDS011;41275;51.912;4.388;2023-05-24T06:10:10;9.32;;;2.20;;
21546;SDS011;41275;51.912;4.388;2023-05-24T06:15:32;10.70;;;2.70;;
21546;SDS011;41275;51.912;4.388;2023-05-24T06:20:54;12.98;;;2.50;;
21546;SDS011;41275;51.912;4.388;2023-05-24T06:26:15;13.85;;;2.65;;
21546;SDS011;41275;51.912;4.388;2023-05-24T06:31:36;17.33;;;2.90;;
21546;SDS011;41275;51.912;4.388;2023-05-24T06:36:57;11.33;;;2.50;;
21546;SDS011;41275;51.912;4.388;2023-05-24T06:42:19;15.00;;;3.03;;
21546;SDS011;41275;51.912;4.388;2023-05-24T06:47:40;12.55;;;2.80;;
21546;SDS011;41275;51.912;4.388;2023-05-24T06:53:01;12.43;;;2.58;;
21546;SDS011;41275;51.912;4.388;2023-05-24T06:58:23;12.32;;;2.50;;
21546;SDS011;41275;51.912;4.388;2023-05-24T07:03:44;13.90;;;2.60;;
21546;SDS011;41275;51.912;4.388;2023-05-24T07:09:05;8.60;;;1.70;;
21546;SDS011;41275;51.912;4.388;2023-05-24T07:14:26;11.73;;;2.38;;
21546;SDS011;41275;51.912;4.388;2023-05-24T07:19:50;9.95;;;1.80;;
21546;SDS011;41275;51.912;4.388;2023-05-24T07:25:11;18.83;;;2.95;;
21546;SDS011;41275;51.912;4.388;2023-05-24T07:30:32;10.93;;;2.33;;
21546;SDS011;41275;51.912;4.388;2023-05-24T07:35:54;12.57;;;2.50;;
21546;SDS011;41275;51.912;4.388;2023-05-24T07:41:15;10.90;;;2.20;;
21546;SDS011;41275;51.912;4.388;2023-05-24T07:46:37;13.15;;;2.60;;
21546;SDS011;41275;51.912;4.388;2023-05-24T07:51:58;9.73;;;2.03;;
21546;SDS011;41275;51.912;4.388;2023-05-24T07:57:20;11.05;;;1.90;;
21546;SDS011;41275;51.912;4.388;2023-05-24T08:02:41;10.07;;;2.17;;
21546;SDS011;41275;51.912;4.388;2023-05-24T08:08:03;6.68;;;2.08;;
21546;SDS011;41275;51.912;4.388;2023-05-24T08:13:25;10.18;;;2.33;;
21546;SDS011;41275;51.912;4.388;2023-05-24T08:18:46;11.85;;;1.88;;
21546;SDS011;41275;51.912;4.388;2023-05-24T08:24:07;10.90;;;2.13;;
21546;SDS011;41275;51.912;4.388;2023-05-24T08:29:28;8.75;;;1.95;;
21546;SDS011;41275;51.912;4.388;2023-05-24T08:34:50;10.07;;;1.90;;
21546;SDS011;41275;51.912;4.388;2023-05-24T08:40:11;10.87;;;1.77;;
21546;SDS011;41275;51.912;4.388;2023-05-24T08:45:32;9.02;;;1.92;;
21546;SDS011;41275;51.912;4.388;2023-05-24T08:50:57;9.95;;;1.60;;
21546;SDS011;41275;51.912;4.388;2023-05-24T08:56:18;7.80;;;1.70;;
21546;SDS011;41275;51.912;4.388;2023-05-24T09:01:39;8.93;;;1.80;;
21546;SDS011;41275;51.912;4.388;2023-05-24T09:07:02;7.45;;;1.60;;
21546;SDS011;41275;51.912;4.388;2023-05-24T09:12:24;7.55;;;1.63;;
21546;SDS011;41275;51.912;4.388;2023-05-24T09:17:47;10.00;;;1.85;;
21546;SDS011;41275;51.912;4.388;2023-05-24T09:23:08;7.55;;;2.03;;
21546;SDS011;41275;51.912;4.388;2023-05-24T09:28:32;9.57;;;1.90;;
21546;SDS011;41275;51.912;4.388;2023-05-24T09:33:53;7.53;;;1.55;;
21546;SDS011;41275;51.912;4.388;2023-05-24T09:39:17;7.68;;;1.60;;
21546;SDS011;41275;51.912;4.388;2023-05-24T09:44:42;7.97;;;1.92;;
21546;SDS011;41275;51.912;4.388;2023-05-24T09:50:04;4.72;;;1.50;;
21546;SDS011;41275;51.912;4.388;2023-05-24T09:55:34;7.50;;;1.63;;
21546;SDS011;41275;51.912;4.388;2023-05-24T10:01:06;7.13;;;1.67;;
21546;SDS011;41275;51.912;4.388;2023-05-24T10:06:34;10.75;;;1.83;;
21546;SDS011;41275;51.912;4.388;2023-05-24T10:12:03;6.53;;;1.60;;
21546;SDS011;41275;51.912;4.388;2023-05-24T10:17:26;5.77;;;1.43;;
21546;SDS011;41275;51.912;4.388;2023-05-24T10:22:52;7.22;;;1.65;;
21546;SDS011;41275;51.912;4.388;2023-05-24T10:28:18;7.23;;;1.57;;
21546;SDS011;41275;51.912;4.388;2023-05-24T10:33:43;7.47;;;1.42;;
21546;SDS011;41275;51.912;4.388;2023-05-24T10:39:09;4.78;;;1.60;;
21546;SDS011;41275;51.912;4.388;2023-05-24T10:44:33;5.90;;;1.55;;
21546;SDS011;41275;51.912;4.388;2023-05-24T10:49:55;7.93;;;1.80;;
21546;SDS011;41275;51.912;4.388;2023-05-24T10:55:24;5.88;;;1.70;;
21546;SDS011;41275;51.912;4.388;2023-05-24T11:00:45;4.70;;;1.23;;
21546;SDS011;41275;51.912;4.388;2023-05-24T11:06:08;8.50;;;1.75;;
21546;SDS011;41275;51.912;4.388;2023-05-24T11:11:29;9.73;;;1.80;;
21546;SDS011;41275;51.912;4.388;2023-05-24T11:16:50;6.45;;;1.60;;
21546;SDS011;41275;51.912;4.388;2023-05-24T11:22:12;6.15;;;1.55;;
21546;SDS011;41275;51.912;4.388;2023-05-24T11:27:41;8.57;;;1.95;;
21546;SDS011;41275;51.912;4.388;2023-05-24T11:33:12;7.60;;;1.98;;
21546;SDS011;41275;51.912;4.388;2023-05-24T11:38:34;9.63;;;1.70;;
21546;SDS011;41275;51.912;4.388;2023-05-24T11:43:56;10.70;;;1.87;;
21546;SDS011;41275;51.912;4.388;2023-05-24T11:49:17;8.80;;;1.95;;
21546;SDS011;41275;51.912;4.388;2023-05-24T11:54:38;7.75;;;1.75;;
21546;SDS011;41275;51.912;4.388;2023-05-24T12:00:00;7.03;;;1.70;;
21546;SDS011;41275;51.912;4.388;2023-05-24T12:05:21;6.75;;;1.60;;
21546;SDS011;41275;51.912;4.388;2023-05-24T12:10:43;5.53;;;1.43;;
21546;SDS011;41275;51.912;4.388;2023-05-24T12:16:04;7.13;;;1.55;;
21546;SDS011;41275;51.912;4.388;2023-05-24T12:21:28;8.43;;;1.80;;
21546;SDS011;41275;51.912;4.388;2023-05-24T12:26:51;5.38;;;1.63;;
21546;SDS011;41275;51.912;4.388;2023-05-24T12:32:17;5.03;;;1.60;;
21546;SDS011;41275;51.912;4.388;2023-05-24T12:37:38;6.38;;;1.58;;
21546;SDS011;41275;51.912;4.388;2023-05-24T12:43:01;7.28;;;1.65;;
21546;SDS011;41275;51.912;4.388;2023-05-24T12:48:23;10.40;;;2.20;;
21546;SDS011;41275;51.912;4.388;2023-05-24T12:53:44;5.22;;;1.48;;
21546;SDS011;41275;51.912;4.388;2023-05-24T12:59:06;7.05;;;1.80;;
21546;SDS011;41275;51.912;4.388;2023-05-24T13:04:27;9.03;;;1.87;;
21546;SDS011;41275;51.912;4.388;2023-05-24T13:09:51;8.75;;;1.95;;
21546;SDS011;41275;51.912;4.388;2023-05-24T13:15:12;9.83;;;1.60;;
21546;SDS011;41275;51.912;4.388;2023-05-24T13:20:34;8.57;;;2.03;;
21546;SDS011;41275;51.912;4.388;2023-05-24T13:25:56;7.75;;;1.73;;
21546;SDS011;41275;51.912;4.388;2023-05-24T13:31:17;7.03;;;1.93;;
21546;SDS011;41275;51.912;4.388;2023-05-24T13:36:38;6.40;;;1.60;;
21546;SDS011;41275;51.912;4.388;2023-05-24T13:42:00;8.07;;;2.17;;
21546;SDS011;41275;51.912;4.388;2023-05-24T13:47:21;7.90;;;2.00;;
21546;SDS011;41275;51.912;4.388;2023-05-24T13:52:43;7.85;;;1.75;;
21546;SDS011;41275;51.912;4.388;2023-05-24T13:58:04;9.55;;;1.90;;
21546;SDS011;41275;51.912;4.388;2023-05-24T14:03:25;8.30;;;1.77;;
21546;SDS011;41275;51.912;4.388;2023-05-24T14:08:47;7.40;;;1.83;;
21546;SDS011;41275;51.912;4.388;2023-05-24T14:14:08;10.97;;;2.17;;
21546;SDS011;41275;51.912;4.388;2023-05-24T14:19:30;11.50;;;2.20;;
21546;SDS011;41275;51.912;4.388;2023-05-24T14:24:51;7.38;;;2.05;;
21546;SDS011;41275;51.912;4.388;2023-05-24T14:30:13;8.03;;;2.03;;
21546;SDS011;41275;51.912;4.388;2023-05-24T14:35:34;7.53;;;2.00;;
21546;SDS011;41275;51.912;4.388;2023-05-24T14:40:59;7.17;;;1.80;;
21546;SDS011;41275;51.912;4.388;2023-05-24T14:46:21;9.68;;;1.95;;
21546;SDS011;41275;51.912;4.388;2023-05-24T14:51:44;8.73;;;1.95;;
21546;SDS011;41275;51.912;4.388;2023-05-24T14:57:08;10.43;;;2.03;;
21546;SDS011;41275;51.912;4.388;2023-05-24T15:02:29;8.20;;;2.20;;
21546;SDS011;41275;51.912;4.388;2023-05-24T15:07:50;6.97;;;2.00;;
21546;SDS011;41275;51.912;4.388;2023-05-24T15:13:12;9.10;;;2.00;;
21546;SDS011;41275;51.912;4.388;2023-05-24T15:18:33;6.40;;;1.60;;
21546;SDS011;41275;51.912;4.388;2023-05-24T15:23:54;8.80;;;1.98;;
21546;SDS011;41275;51.912;4.388;2023-05-24T15:29:15;7.63;;;1.98;;
21546;SDS011;41275;51.912;4.388;2023-05-24T15:34:37;7.53;;;1.88;;
21546;SDS011;41275;51.912;4.388;2023-05-24T15:39:58;10.63;;;1.90;;
21546;SDS011;41275;51.912;4.388;2023-05-24T15:45:19;8.75;;;2.13;;
21546;SDS011;41275;51.912;4.388;2023-05-24T15:50:41;9.10;;;1.97;;
21546;SDS011;41275;51.912;4.388;2023-05-24T15:56:02;8.10;;;2.20;;
21546;SDS011;41275;51.912;4.388;2023-05-24T16:01:23;10.18;;;2.22;;
21546;SDS011;41275;51.912;4.388;2023-05-24T16:06:44;6.93;;;1.88;;
21546;SDS011;41275;51.912;4.388;2023-05-24T16:12:06;6.25;;;1.58;;
21546;SDS011;41275;51.912;4.388;2023-05-24T16:17:28;9.30;;;1.83;;
21546;SDS011;41275;51.912;4.388;2023-05-24T16:22:49;8.33;;;2.20;;
21546;SDS011;41275;51.912;4.388;2023-05-24T16:28:11;14.40;;;3.27;;
21546;SDS011;41275;51.912;4.388;2023-05-24T16:33:32;7.53;;;2.22;;
21546;SDS011;41275;51.912;4.388;2023-05-24T16:38:53;11.35;;;2.45;;
21546;SDS011;41275;51.912;4.388;2023-05-24T16:44:14;9.60;;;2.30;;
21546;SDS011;41275;51.912;4.388;2023-05-24T16:49:38;6.38;;;2.20;;
21546;SDS011;41275;51.912;4.388;2023-05-24T16:54:59;12.37;;;2.60;;
21546;SDS011;41275;51.912;4.388;2023-05-24T17:00:21;8.05;;;2.10;;
21546;SDS011;41275;51.912;4.388;2023-05-24T17:05:42;8.80;;;2.10;;
21546;SDS011;41275;51.912;4.388;2023-05-24T17:11:05;12.20;;;2.30;;
21546;SDS011;41275;51.912;4.388;2023-05-24T17:16:26;10.63;;;2.40;;
21546;SDS011;41275;51.912;4.388;2023-05-24T17:21:48;10.20;;;2.30;;
21546;SDS011;41275;51.912;4.388;2023-05-24T17:27:09;8.87;;;1.90;;
21546;SDS011;41275;51.912;4.388;2023-05-24T17:32:30;8.50;;;2.33;;
21546;SDS011;41275;51.912;4.388;2023-05-24T17:37:51;9.85;;;2.30;;
21546;SDS011;41275;51.912;4.388;2023-05-24T17:43:13;8.98;;;2.30;;
21546;SDS011;41275;51.912;4.388;2023-05-24T17:48:35;8.43;;;2.10;;
21546;SDS011;41275;51.912;4.388;2023-05-24T17:53:57;7.70;;;2.42;;
21546;SDS011;41275;51.912;4.388;2023-05-24T17:59:18;10.90;;;2.20;;
21546;SDS011;41275;51.912;4.388;2023-05-24T18:04:39;6.70;;;2.00;;
21546;SDS011;41275;51.912;4.388;2023-05-24T18:10:01;9.23;;;2.30;;
21546;SDS011;41275;51.912;4.388;2023-05-24T18:15:23;7.83;;;2.17;;
21546;SDS011;41275;51.912;4.388;2023-05-24T18:20:44;10.48;;;2.22;;
21546;SDS011;41275;51.912;4.388;2023-05-24T18:26:06;11.05;;;2.10;;
21546;SDS011;41275;51.912;4.388;2023-05-24T18:31:28;6.28;;;2.10;;
21546;SDS011;41275;51.912;4.388;2023-05-24T18:36:50;7.30;;;1.70;;
21546;SDS011;41275;51.912;4.388;2023-05-24T18:42:12;9.32;;;1.92;;
21546;SDS011;41275;51.912;4.388;2023-05-24T18:47:33;9.30;;;2.17;;
21546;SDS011;41275;51.912;4.388;2023-05-24T18:52:54;7.77;;;1.80;;
21546;SDS011;41275;51.912;4.388;2023-05-24T18:58:15;9.70;;;2.20;;
21546;SDS011;41275;51.912;4.388;2023-05-24T19:03:37;9.83;;;2.07;;
21546;SDS011;41275;51.912;4.388;2023-05-24T19:08:58;10.37;;;2.07;;
21546;SDS011;41275;51.912;4.388;2023-05-24T19:14:20;10.90;;;2.40;;
21546;SDS011;41275;51.912;4.388;2023-05-24T19:19:41;9.00;;;1.98;;
21546;SDS011;41275;51.912;4.388;2023-05-24T19:25:03;11.10;;;2.38;;
21546;SDS011;41275;51.912;4.388;2023-05-24T19:30:25;7.35;;;2.30;;
21546;SDS011;41275;51.912;4.388;2023-05-24T19:35:46;12.40;;;2.20;;
21546;SDS011;41275;51.912;4.388;2023-05-24T19:41:07;9.65;;;2.20;;
21546;SDS011;41275;51.912;4.388;2023-05-24T19:46:28;9.00;;;1.85;;
21546;SDS011;41275;51.912;4.388;2023-05-24T19:51:50;9.50;;;2.03;;
21546;SDS011;41275;51.912;4.388;2023-05-24T19:57:11;9.52;;;2.13;;
21546;SDS011;41275;51.912;4.388;2023-05-24T20:02:33;8.73;;;2.05;;
21546;SDS011;41275;51.912;4.388;2023-05-24T20:07:54;8.95;;;2.10;;
21546;SDS011;41275;51.912;4.388;2023-05-24T20:13:15;14.27;;;2.80;;
21546;SDS011;41275;51.912;4.388;2023-05-24T20:18:36;10.57;;;2.03;;
21546;SDS011;41275;51.912;4.388;2023-05-24T20:23:58;7.93;;;1.83;;
21546;SDS011;41275;51.912;4.388;2023-05-24T20:29:19;8.43;;;1.80;;
21546;SDS011;41275;51.912;4.388;2023-05-24T20:34:41;10.45;;;2.42;;
21546;SDS011;41275;51.912;4.388;2023-05-24T20:40:02;8.40;;;2.03;;
21546;SDS011;41275;51.912;4.388;2023-05-24T20:45:25;10.65;;;2.00;;
21546;SDS011;41275;51.912;4.388;2023-05-24T20:50:46;13.48;;;2.63;;
21546;SDS011;41275;51.912;4.388;2023-05-24T20:56:10;8.00;;;2.10;;
21546;SDS011;41275;51.912;4.388;2023-05-24T21:01:31;9.30;;;2.35;;
21546;SDS011;41275;51.912;4.388;2023-05-24T21:06:52;7.37;;;2.37;;
21546;SDS011;41275;51.912;4.388;2023-05-24T21:12:14;11.05;;;2.20;;
21546;SDS011;41275;51.912;4.388;2023-05-24T21:17:36;11.23;;;2.25;;
21546;SDS011;41275;51.912;4.388;2023-05-24T21:22:58;12.07;;;2.47;;
21546;SDS011;41275;51.912;4.388;2023-05-24T21:28:20;9.25;;;2.17;;
21546;SDS011;41275;51.912;4.388;2023-05-24T21:33:41;11.07;;;2.25;;
21546;SDS011;41275;51.912;4.388;2023-05-24T21:39:03;16.60;;;2.65;;
21546;SDS011;41275;51.912;4.388;2023-05-24T21:44:27;10.17;;;2.10;;
21546;SDS011;41275;51.912;4.388;2023-05-24T21:49:48;8.35;;;2.33;;
21546;SDS011;41275;51.912;4.388;2023-05-24T21:55:10;8.73;;;1.97;;
21546;SDS011;41275;51.912;4.388;2023-05-24T22:00:31;11.23;;;2.10;;
21546;SDS011;41275;51.912;4.388;2023-05-24T22:05:53;8.57;;;2.30;;
21546;SDS011;41275;51.912;4.388;2023-05-24T22:11:14;9.20;;;2.45;;
21546;SDS011;41275;51.912;4.388;2023-05-24T22:16:36;7.95;;;1.73;;
21546;SDS011;41275;51.912;4.388;2023-05-24T22:21:57;8.73;;;2.30;;
21546;SDS011;41275;51.912;4.388;2023-05-24T22:27:19;9.70;;;2.43;;
21546;SDS011;41275;51.912;4.388;2023-05-24T22:32:41;10.82;;;2.08;;
21546;SDS011;41275;51.912;4.388;2023-05-24T22:38:02;13.35;;;2.25;;
21546;SDS011;41275;51.912;4.388;2023-05-24T22:43:23;12.03;;;2.70;;
21546;SDS011;41275;51.912;4.388;2023-05-24T22:48:44;7.28;;;2.00;;
21546;SDS011;41275;51.912;4.388;2023-05-24T22:54:06;9.88;;;2.38;;
21546;SDS011;41275;51.912;4.388;2023-05-24T22:59:27;7.38;;;2.08;;
21546;SDS011;41275;51.912;4.388;2023-05-24T23:04:48;9.60;;;2.17;;
21546;SDS011;41275;51.912;4.388;2023-05-24T23:10:09;9.40;;;1.85;;
21546;SDS011;41275;51.912;4.388;2023-05-24T23:15:30;13.77;;;2.00;;
21546;SDS011;41275;51.912;4.388;2023-05-24T23:20:52;9.18;;;2.30;;
21546;SDS011;41275;51.912;4.388;2023-05-24T23:26:14;9.33;;;2.17;;
21546;SDS011;41275;51.912;4.388;2023-05-24T23:31:35;8.77;;;2.00;;
21546;SDS011;41275;51.912;4.388;2023-05-24T23:36:56;10.20;;;2.08;;
21546;SDS011;41275;51.912;4.388;2023-05-24T23:42:18;10.23;;;2.35;;
21546;SDS011;41275;51.912;4.388;2023-05-24T23:47:39;10.93;;;2.45;;
21546;SDS011;41275;51.912;4.388;2023-05-24T23:53:02;8.82;;;2.38;;
21546;SDS011;41275;51.912;4.388;2023-05-24T23:58:24;10.90;;;2.43;;
